Time;durP1;ratioP1;P1;durP2;ratioP2;P2;SDS_P1;SDS_P2;PMS_P1;PMS_P2;Temp;Humidity;BMP_temperature;BMP_pressure;BME280_temperature;BME280_humidity;BME280_pressure;Samples;Min_cycle;Max_cycle;Signal;HPM_P1;HPM_P2
2023/09/10 00:02:31;;;;;;;23.92;15.30;;;25.00;68.70;;;;;;6121974;28;85765;-51
2023/09/10 00:05:32;;;;;;;25.45;16.13;;;25.00;68.70;;;;;;6121947;28;83354;-52
2023/09/10 00:08:32;;;;;;;27.63;15.55;;;25.00;68.60;;;;;;6135719;28;83124;-51
2023/09/10 00:11:33;;;;;;;24.02;15.88;;;25.10;68.50;;;;;;6123035;28;84108;-50
2023/09/10 00:14:33;;;;;;;21.10;14.90;;;25.10;68.40;;;;;;6123957;28;88636;-54
2023/09/10 00:17:34;;;;;;;23.10;15.23;;;25.10;68.30;;;;;;6124464;28;90206;-50
2023/09/10 00:20:34;;;;;;;24.58;15.68;;;25.10;68.20;;;;;;6123273;28;83094;-51
2023/09/10 00:23:35;;;;;;;25.80;16.10;;;25.00;68.80;;;;;;6124730;28;83644;-53
2023/09/10 00:26:35;;;;;;;23.05;14.90;;;25.10;68.20;;;;;;6122859;28;82905;-53
2023/09/10 00:29:36;;;;;;;24.58;15.32;;;25.10;68.10;;;;;;6120067;28;83470;-50
2023/09/10 00:32:36;;;;;;;24.58;14.80;;;25.10;68.00;;;;;;6116647;28;84181;-51
2023/09/10 00:35:37;;;;;;;22.92;14.38;;;25.10;67.90;;;;;;6127481;28;85068;-51
2023/09/10 00:38:38;;;;;;;20.77;13.77;;;25.00;67.90;;;;;;6146052;28;84238;-50
2023/09/10 00:41:38;;;;;;;21.20;12.80;;;25.00;67.90;;;;;;6123418;28;84238;-48
2023/09/10 00:44:41;;;;;;;22.13;13.52;;;25.00;67.90;;;;;;6137255;28;83233;-49
2023/09/10 00:47:41;;;;;;;19.55;13.65;;;25.10;67.90;;;;;;6128291;28;84844;-51
2023/09/10 00:50:42;;;;;;;19.73;13.27;;;25.00;67.80;;;;;;6122302;28;84536;-47
2023/09/10 00:53:43;;;;;;;20.42;13.10;;;25.00;68.00;;;;;;6122116;28;84292;-51
2023/09/10 00:56:43;;;;;;;22.65;13.77;;;24.90;68.10;;;;;;6124584;28;83394;-49
2023/09/10 00:59:44;;;;;;;16.88;13.32;;;24.90;68.00;;;;;;6117633;28;84296;-49
2023/09/10 01:02:45;;;;;;;19.63;13.35;;;24.90;68.00;;;;;;6137051;28;82977;-48
2023/09/10 01:05:45;;;;;;;21.70;13.18;;;25.00;67.80;;;;;;6121927;28;84801;-71
2023/09/10 01:08:47;;;;;;;21.35;13.25;;;24.90;67.70;;;;;;6125245;28;83404;-70
2023/09/10 01:11:47;;;;;;;19.17;13.07;;;25.00;67.60;;;;;;6125312;28;83121;-70
2023/09/10 01:14:48;;;;;;;20.80;13.20;;;24.90;67.50;;;;;;6125527;28;83532;-68
2023/09/10 01:17:48;;;;;;;17.30;13.13;;;24.90;67.50;;;;;;6122944;28;85635;-69
2023/09/10 01:20:49;;;;;;;19.23;11.88;;;25.00;67.50;;;;;;6124337;28;84033;-70
2023/09/10 01:23:50;;;;;;;23.50;13.77;;;24.90;67.40;;;;;;6124377;28;86462;-58
2023/09/10 01:26:50;;;;;;;19.20;13.30;;;24.90;67.30;;;;;;6122588;28;86093;-59
2023/09/10 01:29:51;;;;;;;22.33;13.20;;;24.90;67.30;;;;;;6121929;28;85091;-58
2023/09/10 01:32:51;;;;;;;22.25;12.63;;;24.90;67.30;;;;;;6123760;28;83962;-59
2023/09/10 01:35:52;;;;;;;18.42;13.10;;;24.90;67.20;;;;;;6129688;28;86052;-60
2023/09/10 01:38:52;;;;;;;22.02;12.90;;;24.90;67.10;;;;;;6127310;28;83616;-59
2023/09/10 01:41:53;;;;;;;21.67;11.60;;;24.90;67.10;;;;;;6129568;28;83155;-50
2023/09/10 01:44:53;;;;;;;19.50;12.55;;;24.90;67.00;;;;;;6122461;28;84989;-51
2023/09/10 01:47:54;;;;;;;16.90;12.23;;;24.90;66.90;;;;;;6122888;28;90705;-49
2023/09/10 01:50:54;;;;;;;17.10;13.15;;;24.90;66.90;;;;;;6123775;28;84852;-48
2023/09/10 01:53:55;;;;;;;20.02;13.27;;;24.90;66.90;;;;;;6122810;28;86045;-52
2023/09/10 01:56:56;;;;;;;20.65;12.82;;;24.90;67.30;;;;;;6124377;28;86285;-51
2023/09/10 01:59:56;;;;;;;16.30;11.95;;;24.90;67.50;;;;;;6120983;28;86738;-60
2023/09/10 02:02:57;;;;;;;17.90;12.50;;;24.90;67.50;;;;;;6121435;28;86152;-59
2023/09/10 02:05:58;;;;;;;19.13;12.38;;;24.90;67.50;;;;;;6126936;28;83654;-57
2023/09/10 02:08:59;;;;;;;17.13;11.85;;;24.90;67.40;;;;;;6134637;28;84497;-59
2023/09/10 02:11:59;;;;;;;19.83;12.63;;;24.90;67.30;;;;;;6132358;28;84694;-58
2023/09/10 02:15:00;;;;;;;17.70;11.93;;;24.90;67.20;;;;;;6124620;28;82964;-60
2023/09/10 02:18:00;;;;;;;17.02;11.60;;;24.90;67.10;;;;;;6131307;28;85895;-59
2023/09/10 02:21:01;;;;;;;17.60;12.20;;;24.90;67.10;;;;;;6127411;28;83658;-59
2023/09/10 02:24:02;;;;;;;18.33;12.85;;;24.90;67.00;;;;;;6123297;28;82710;-59
2023/09/10 02:27:03;;;;;;;14.32;11.40;;;24.90;66.90;;;;;;6122777;28;83591;-59
2023/09/10 02:30:04;;;;;;;16.67;12.10;;;24.90;66.90;;;;;;6123120;28;83468;-59
2023/09/10 02:33:06;;;;;;;16.15;12.05;;;24.90;66.80;;;;;;6121783;28;83101;-60
2023/09/10 02:36:07;;;;;;;18.08;12.50;;;24.90;66.80;;;;;;6133839;28;84179;-52
2023/09/10 02:39:07;;;;;;;16.30;12.23;;;24.90;66.80;;;;;;6124662;28;83427;-58
2023/09/10 02:42:08;;;;;;;16.52;11.15;;;24.90;66.70;;;;;;6123802;28;83107;-59
2023/09/10 02:45:08;;;;;;;16.30;12.68;;;24.90;67.40;;;;;;6125581;28;86142;-59
2023/09/10 02:48:09;;;;;;;18.42;12.82;;;24.90;66.80;;;;;;6124736;28;84310;-59
2023/09/10 02:51:09;;;;;;;16.13;11.45;;;24.90;67.20;;;;;;6126099;28;86352;-58
2023/09/10 02:54:10;;;;;;;16.83;12.77;;;24.90;66.80;;;;;;6125548;28;86094;-58
2023/09/10 02:57:10;;;;;;;16.02;12.05;;;24.90;66.80;;;;;;6125768;28;85600;-72
2023/09/10 03:00:11;;;;;;;15.68;11.60;;;24.90;66.70;;;;;;6125418;28;83059;-70
2023/09/10 03:03:11;;;;;;;18.35;13.38;;;24.90;66.60;;;;;;6125759;28;85634;-71
2023/09/10 03:06:15;;;;;;;17.15;11.55;;;24.90;66.50;;;;;;6126868;28;85149;-73
2023/09/10 03:09:15;;;;;;;16.90;11.73;;;24.90;66.50;;;;;;6125894;28;83266;-73
2023/09/10 03:12:17;;;;;;;15.10;11.20;;;24.90;66.50;;;;;;6125744;28;85574;-73
2023/09/10 03:15:17;;;;;;;18.50;12.25;;;24.90;66.50;;;;;;6125716;28;86127;-64
2023/09/10 03:18:18;;;;;;;16.75;11.70;;;24.90;66.30;;;;;;6127251;28;83572;-63
2023/09/10 03:21:20;;;;;;;18.42;11.85;;;24.90;66.30;;;;;;6127234;28;83417;-65
2023/09/10 03:24:20;;;;;;;17.10;11.75;;;24.90;66.20;;;;;;6125193;28;85968;-66
2023/09/10 03:27:21;;;;;;;15.27;11.43;;;24.90;66.10;;;;;;6125878;28;84063;-64
2023/09/10 03:30:22;;;;;;;16.20;11.65;;;24.90;66.30;;;;;;6124553;28;85947;-63
2023/09/10 03:33:22;;;;;;;17.88;12.30;;;24.90;66.00;;;;;;6124663;28;84592;-49
2023/09/10 03:36:23;;;;;;;18.13;12.25;;;24.80;65.80;;;;;;6126274;28;83783;-51
2023/09/10 03:39:24;;;;;;;16.20;11.98;;;24.80;65.80;;;;;;6140882;28;87629;-54
2023/09/10 03:42:25;;;;;;;17.27;11.70;;;24.90;65.80;;;;;;6124983;28;86160;-54
2023/09/10 03:45:25;;;;;;;17.73;11.07;;;24.80;65.70;;;;;;6123602;28;86295;-53
2023/09/10 03:48:26;;;;;;;16.38;11.32;;;24.80;65.70;;;;;;6125437;28;85203;-52
2023/09/10 03:51:27;;;;;;;14.10;10.77;;;24.80;65.60;;;;;;6124127;28;86131;-59
2023/09/10 03:54:27;;;;;;;16.08;11.68;;;24.80;65.60;;;;;;6122022;28;83336;-59
2023/09/10 03:57:28;;;;;;;15.52;10.88;;;24.80;65.60;;;;;;6122712;28;85561;-59
2023/09/10 04:00:28;;;;;;;14.80;10.90;;;24.80;65.90;;;;;;6097987;28;86181;-56
2023/09/10 04:03:29;;;;;;;16.20;12.07;;;24.70;65.70;;;;;;6094892;28;86307;-58
2023/09/10 04:06:30;;;;;;;14.73;10.82;;;24.80;65.50;;;;;;6096013;28;83695;-59
2023/09/10 04:09:30;;;;;;;17.20;10.57;;;24.80;66.10;;;;;;6098219;28;85835;-59
2023/09/10 04:12:31;;;;;;;15.05;10.38;;;24.80;65.80;;;;;;6099789;28;82798;-59
2023/09/10 04:15:31;;;;;;;15.23;11.95;;;24.80;65.80;;;;;;6115262;28;85987;-59
2023/09/10 04:18:34;;;;;;;14.02;10.48;;;24.80;65.90;;;;;;6129134;28;82980;-59
2023/09/10 04:21:35;;;;;;;16.45;10.35;;;24.80;65.80;;;;;;6124065;28;82945;-57
2023/09/10 04:24:35;;;;;;;20.13;10.60;;;24.80;66.00;;;;;;6114963;28;84345;-58
2023/09/10 04:27:36;;;;;;;11.95;8.93;;;24.80;66.70;;;;;;6123428;28;85414;-80
2023/09/10 04:30:36;;;;;;;12.68;8.32;;;24.80;68.40;;;;;;6125044;28;86118;-74
2023/09/10 04:33:37;;;;;;;13.95;8.50;;;24.80;67.80;;;;;;6123221;28;83213;-75
2023/09/10 04:36:38;;;;;;;12.65;8.70;;;24.80;67.90;;;;;;6108351;28;80498;-77
2023/09/10 04:39:38;;;;;;;12.98;8.38;;;24.80;67.30;;;;;;6114534;28;83261;-76
2023/09/10 04:42:39;;;;;;;14.23;8.30;;;24.80;67.40;;;;;;6110083;28;81713;-76
2023/09/10 04:45:39;;;;;;;11.77;8.77;;;24.80;67.30;;;;;;6112677;28;81448;-74
2023/09/10 04:48:40;;;;;;;10.38;8.40;;;24.80;67.30;;;;;;6120289;28;80619;-76
2023/09/10 04:51:40;;;;;;;16.75;9.38;;;24.80;67.30;;;;;;6130831;28;81249;-76
2023/09/10 04:54:41;;;;;;;11.07;8.52;;;24.70;67.30;;;;;;6133694;28;82588;-77
2023/09/10 04:57:42;;;;;;;11.15;8.45;;;24.80;67.20;;;;;;6113966;28;87145;-78
2023/09/10 05:00:42;;;;;;;11.10;8.63;;;24.80;67.10;;;;;;6125989;28;83600;-77
2023/09/10 05:03:43;;;;;;;13.25;8.85;;;24.80;67.10;;;;;;6125441;28;83186;-62
2023/09/10 05:06:44;;;;;;;19.40;9.07;;;24.80;67.10;;;;;;6119416;28;81603;-65
2023/09/10 05:09:45;;;;;;;14.63;9.85;;;24.80;67.10;;;;;;6127001;28;81793;-63
2023/09/10 05:12:45;;;;;;;16.80;9.98;;;24.80;67.10;;;;;;6125112;28;81710;-62
2023/09/10 05:15:46;;;;;;;16.42;9.55;;;24.80;67.00;;;;;;6123047;28;82850;-64
2023/09/10 05:18:47;;;;;;;14.02;9.63;;;24.90;67.00;;;;;;6126687;28;83517;-65
2023/09/10 05:21:50;;;;;;;14.50;11.20;;;24.80;67.20;;;;;;6125787;28;81956;-63
2023/09/10 05:24:51;;;;;;;16.08;10.15;;;24.80;67.20;;;;;;6123136;28;83412;-64
2023/09/10 05:27:51;;;;;;;17.77;10.52;;;24.90;67.40;;;;;;6125581;28;84269;-65
2023/09/10 05:30:52;;;;;;;11.82;9.55;;;24.80;67.30;;;;;;6112122;28;84202;-61
2023/09/10 05:33:52;;;;;;;15.60;10.10;;;24.80;67.40;;;;;;6136879;28;84644;-68
2023/09/10 05:36:53;;;;;;;15.23;9.57;;;24.80;67.50;;;;;;6133362;28;84349;-64
2023/09/10 05:39:54;;;;;;;15.05;9.70;;;24.80;67.50;;;;;;6113693;28;81963;-59
2023/09/10 05:42:54;;;;;;;15.30;9.30;;;24.90;67.20;;;;;;6121851;28;83824;-59
2023/09/10 05:45:56;;;;;;;12.57;9.15;;;24.90;67.20;;;;;;6124486;28;83747;-59
2023/09/10 05:48:56;;;;;;;12.77;9.88;;;24.90;67.40;;;;;;6121288;28;83406;-58
2023/09/10 05:51:57;;;;;;;18.55;9.60;;;24.90;67.20;;;;;;6121707;28;80521;-55
2023/09/10 05:54:58;;;;;;;16.23;10.10;;;24.90;67.40;;;;;;6123960;28;83340;-55
2023/09/10 05:57:59;;;;;;;12.25;9.35;;;24.90;68.00;;;;;;6118915;28;83547;-52
2023/09/10 06:00:59;;;;;;;14.18;9.05;;;24.90;68.30;;;;;;6124581;28;82861;-58
2023/09/10 06:04:00;;;;;;;17.23;9.93;;;24.90;68.00;;;;;;6116918;28;80528;-58
2023/09/10 06:07:03;;;;;;;14.73;9.82;;;24.90;68.00;;;;;;6123496;28;83610;-58
2023/09/10 06:10:08;;;;;;;32.97;12.05;;;24.90;67.80;;;;;;6125237;28;82250;-53
2023/09/10 06:13:09;;;;;;;16.83;11.23;;;24.90;68.50;;;;;;6120238;28;85385;-53
2023/09/10 06:16:10;;;;;;;20.13;14.07;;;25.00;68.50;;;;;;6119495;28;85281;-52
2023/09/10 06:19:10;;;;;;;20.80;14.63;;;25.00;69.90;;;;;;6101641;28;85937;-71
2023/09/10 06:22:11;;;;;;;16.83;13.23;;;25.10;69.40;;;;;;6137870;28;86381;-67
2023/09/10 06:25:12;;;;;;;20.25;13.75;;;25.10;70.00;;;;;;6114406;28;83072;-69
2023/09/10 06:28:12;;;;;;;23.38;14.55;;;25.10;69.40;;;;;;6115291;28;83952;-70
2023/09/10 06:31:13;;;;;;;19.33;14.60;;;25.10;69.30;;;;;;6115950;28;86306;-72
2023/09/10 06:34:14;;;;;;;23.17;15.05;;;25.10;69.10;;;;;;6125341;28;86125;-67
2023/09/10 06:37:14;;;;;;;22.08;15.00;;;25.10;69.00;;;;;;6123942;28;83948;-54
2023/09/10 06:40:16;;;;;;;21.00;14.70;;;25.10;68.70;;;;;;6123809;28;85551;-54
2023/09/10 06:43:19;;;;;;;20.08;15.23;;;25.10;68.50;;;;;;6123766;28;92095;-55
2023/09/10 06:46:33;;;;;;;22.50;15.15;;;25.10;68.20;;;;;;6099385;28;89763;-52
2023/09/10 06:49:34;;;;;;;18.95;14.45;;;25.10;68.10;;;;;;6099834;28;90428;-54
2023/09/10 06:52:34;;;;;;;20.30;14.43;;;25.20;68.20;;;;;;6102228;28;84717;-55
2023/09/10 06:55:35;;;;;;;20.83;16.23;;;25.10;68.10;;;;;;6103790;28;83463;-70
2023/09/10 06:58:35;;;;;;;20.75;15.30;;;25.10;67.90;;;;;;6099634;28;83954;-71
2023/09/10 07:01:37;;;;;;;21.08;15.18;;;25.20;68.40;;;;;;6093082;28;83177;-65
2023/09/10 07:04:47;;;;;;;22.15;16.02;;;25.10;68.10;;;;;;6087341;28;83133;-76
2023/09/10 07:07:53;;;;;;;21.92;14.38;;;25.10;68.20;;;;;;6088227;28;83752;-70
2023/09/10 07:10:53;;;;;;;22.77;13.90;;;25.10;68.20;;;;;;6097967;28;83482;-65
2023/09/10 07:13:54;;;;;;;20.65;15.00;;;25.20;68.10;;;;;;6099686;28;83140;-48
2023/09/10 07:16:54;;;;;;;19.10;14.02;;;25.20;68.40;;;;;;6094671;28;83160;-52
2023/09/10 07:19:55;;;;;;;21.00;14.98;;;25.10;68.90;;;;;;6098507;28;89366;-50
2023/09/10 07:22:55;;;;;;;22.38;14.77;;;25.10;68.80;;;;;;6093813;28;84925;-52
2023/09/10 07:25:56;;;;;;;21.33;15.30;;;25.10;68.90;;;;;;6082192;28;84188;-51
2023/09/10 07:28:57;;;;;;;19.95;15.40;;;25.10;68.90;;;;;;6081582;28;83678;-51
2023/09/10 07:31:57;;;;;;;21.63;15.65;;;25.10;68.80;;;;;;6080047;28;84417;-50
2023/09/10 07:34:58;;;;;;;20.90;15.40;;;25.10;69.10;;;;;;6077941;28;88250;-52
2023/09/10 07:37:58;;;;;;;21.75;15.90;;;25.10;69.10;;;;;;6081134;28;84842;-55
2023/09/10 07:41:23;;;;;;;23.90;15.80;;;25.10;69.10;;;;;;6234352;23;85693;-53
2023/09/10 07:44:24;;;;;;;19.88;16.38;;;25.10;69.20;;;;;;6079599;28;84281;-52
2023/09/10 07:47:24;;;;;;;22.20;15.95;;;25.10;69.10;;;;;;6083028;28;83839;-54
2023/09/10 07:50:27;;;;;;;22.70;17.23;;;25.00;69.40;;;;;;6080347;28;83960;-53
2023/09/10 07:53:28;;;;;;;20.67;15.23;;;25.00;69.60;;;;;;6080690;28;84182;-54
2023/09/10 07:56:28;;;;;;;17.23;14.40;;;25.00;69.60;;;;;;6079076;28;83819;-54
2023/09/10 07:59:29;;;;;;;19.52;14.98;;;25.10;69.70;;;;;;6079870;28;84688;-49
2023/09/10 08:02:30;;;;;;;24.25;15.15;;;25.10;69.80;;;;;;6080646;28;83977;-56
2023/09/10 08:05:31;;;;;;;20.95;15.77;;;25.00;70.00;;;;;;6076231;28;84158;-54
2023/09/10 08:08:31;;;;;;;21.48;14.77;;;25.00;70.10;;;;;;6082423;28;84448;-53
2023/09/10 08:11:32;;;;;;;19.38;14.82;;;25.00;70.10;;;;;;6078332;28;84667;-54
2023/09/10 09:21:44;;;;;;;15.48;10.98;;;25.00;72.30;;;;;;7636073;22;1350329;-62
2023/09/10 09:24:45;;;;;;;17.23;11.55;;;25.20;71.70;;;;;;7682043;22;83199;-63
2023/09/10 09:27:45;;;;;;;13.20;10.30;;;25.30;71.50;;;;;;7683022;22;83204;-61
2023/09/10 09:30:46;;;;;;;15.60;10.10;;;25.40;71.20;;;;;;7683602;22;83992;-60
2023/09/10 09:33:47;;;;;;;18.48;11.20;;;25.50;71.20;;;;;;7683926;22;83386;-61
2023/09/10 09:36:47;;;;;;;13.60;9.77;;;25.60;71.10;;;;;;7683690;22;83297;-64
2023/09/10 09:39:48;;;;;;;18.23;10.45;;;25.70;71.90;;;;;;7690343;22;82946;-60
2023/09/10 09:42:48;;;;;;;16.95;9.60;;;25.70;71.50;;;;;;7686721;22;83002;-60
2023/09/10 09:45:49;;;;;;;24.25;9.38;;;25.70;71.00;;;;;;7689720;22;81802;-60
2023/09/10 09:48:49;;;;;;;12.02;9.25;;;25.80;71.40;;;;;;7661905;22;83411;-60
2023/09/10 09:51:50;;;;;;;16.05;10.95;;;25.90;71.30;;;;;;7686855;22;80404;-61
2023/09/10 09:54:50;;;;;;;12.73;9.77;;;25.90;71.40;;;;;;7685632;22;83356;-61
2023/09/10 09:57:51;;;;;;;16.45;9.27;;;26.00;70.90;;;;;;7689849;22;82844;-60
2023/09/10 10:00:51;;;;;;;12.48;9.68;;;26.10;70.50;;;;;;7690938;22;80674;-63
2023/09/10 10:03:52;;;;;;;15.02;9.43;;;26.20;70.50;;;;;;7664429;22;80740;-62
2023/09/10 10:06:53;;;;;;;14.00;9.93;;;26.20;70.30;;;;;;7690711;22;80587;-62
2023/09/10 10:09:53;;;;;;;12.90;9.35;;;26.30;70.50;;;;;;7663670;22;81203;-62
2023/09/10 10:12:54;;;;;;;13.45;8.05;;;26.30;70.60;;;;;;7691173;22;80969;-62
2023/09/10 10:15:54;;;;;;;13.30;8.93;;;26.30;69.50;;;;;;7691515;22;80731;-62
2023/09/10 10:18:55;;;;;;;15.88;9.55;;;26.20;69.30;;;;;;7684256;22;81095;-61
2023/09/10 10:21:56;;;;;;;13.55;9.27;;;26.20;69.60;;;;;;7681968;22;80188;-62
2023/09/10 10:24:56;;;;;;;12.95;9.60;;;26.10;69.60;;;;;;7683173;22;80611;-62
2023/09/10 10:27:57;;;;;;;14.02;8.57;;;26.10;69.70;;;;;;7683252;22;80813;-62
2023/09/10 10:30:57;;;;;;;11.68;9.73;;;26.20;69.90;;;;;;7683682;22;80637;-62
2023/09/10 10:33:58;;;;;;;10.68;8.40;;;26.20;70.00;;;;;;7656299;22;80373;-61
2023/09/10 10:36:58;;;;;;;10.30;8.95;;;26.20;69.50;;;;;;7682862;22;81007;-59
2023/09/10 10:39:59;;;;;;;12.77;9.27;;;26.10;69.60;;;;;;7682947;22;80138;-59
2023/09/10 10:42:59;;;;;;;13.20;9.05;;;26.20;69.60;;;;;;7683220;22;80212;-59
2023/09/10 10:46:00;;;;;;;12.88;9.63;;;26.20;69.20;;;;;;7682825;22;80343;-59
2023/09/10 10:49:00;;;;;;;16.48;9.57;;;26.20;69.80;;;;;;7683075;22;80868;-59
2023/09/10 10:52:01;;;;;;;12.82;8.27;;;26.20;70.00;;;;;;7683563;22;80404;-57
2023/09/10 10:55:01;;;;;;;13.55;10.07;;;26.30;69.70;;;;;;7682847;22;80187;-61
2023/09/10 10:58:02;;;;;;;13.75;8.88;;;26.20;69.50;;;;;;7678473;22;83841;-61
2023/09/10 11:01:03;;;;;;;13.52;9.45;;;26.20;69.50;;;;;;7682974;22;81670;-60
2023/09/10 11:04:03;;;;;;;10.43;8.70;;;26.20;69.40;;;;;;7682895;22;80871;-60
2023/09/10 11:07:04;;;;;;;11.63;9.15;;;26.20;69.10;;;;;;7683084;22;80736;-60
2023/09/10 11:10:04;;;;;;;11.15;8.93;;;26.20;69.00;;;;;;7683352;22;79965;-60
2023/09/10 11:13:05;;;;;;;12.63;8.73;;;26.20;69.10;;;;;;7682584;22;80228;-59
2023/09/10 11:16:06;;;;;;;10.75;8.98;;;26.20;69.20;;;;;;7682751;22;80347;-58
2023/09/10 11:19:06;;;;;;;10.32;9.05;;;26.20;69.20;;;;;;7682882;22;81054;-58
2023/09/10 11:22:07;;;;;;;10.88;8.82;;;26.20;69.10;;;;;;7681894;22;80322;-58
2023/09/10 11:25:07;;;;;;;11.02;9.23;;;26.20;69.00;;;;;;7682624;22;81428;-58
2023/09/10 11:28:08;;;;;;;12.90;8.65;;;26.20;69.40;;;;;;7682327;22;80432;-58
2023/09/10 11:31:08;;;;;;;12.05;8.65;;;26.20;69.50;;;;;;7683249;22;80210;-59
2023/09/10 11:34:09;;;;;;;14.15;9.07;;;26.30;69.60;;;;;;7682838;22;80016;-60
2023/09/10 11:37:10;;;;;;;11.95;8.95;;;26.50;70.00;;;;;;7655597;22;80460;-57
2023/09/10 11:40:12;;;;;;;12.63;9.30;;;26.60;69.70;;;;;;7682599;22;80423;-60
2023/09/10 11:43:12;;;;;;;15.48;9.15;;;26.90;69.50;;;;;;7682231;22;80850;-60
2023/09/10 11:46:13;;;;;;;14.02;8.23;;;26.90;69.20;;;;;;7683083;22;80199;-60
2023/09/10 11:49:13;;;;;;;10.35;9.20;;;26.90;68.90;;;;;;7682000;22;80798;-59
2023/09/10 11:52:14;;;;;;;15.82;8.80;;;26.90;68.60;;;;;;7681496;22;80183;-58
2023/09/10 11:55:14;;;;;;;13.52;9.10;;;26.90;68.70;;;;;;7682054;22;80203;-60
2023/09/10 11:58:15;;;;;;;10.27;8.63;;;27.00;68.90;;;;;;7680803;22;80322;-60
2023/09/10 12:01:15;;;;;;;11.70;8.65;;;27.00;68.70;;;;;;7653006;22;81119;-59
2023/09/10 12:04:16;;;;;;;11.13;7.85;;;27.00;68.20;;;;;;7679307;22;80632;-58
2023/09/10 12:07:17;;;;;;;13.63;9.05;;;26.90;68.00;;;;;;7679470;22;80976;-58
2023/09/10 12:10:18;;;;;;;11.52;8.73;;;27.00;67.80;;;;;;7679408;22;80426;-59
2023/09/10 12:13:18;;;;;;;13.32;9.45;;;27.00;66.70;;;;;;7680121;22;80116;-59
2023/09/10 12:16:19;;;;;;;14.75;9.02;;;26.90;66.50;;;;;;7678904;22;80598;-59
2023/09/10 12:19:19;;;;;;;10.07;8.45;;;26.80;66.50;;;;;;7679468;22;80592;-59
2023/09/10 12:22:20;;;;;;;14.43;9.02;;;26.80;66.70;;;;;;7679760;22;80904;-61
2023/09/10 12:25:20;;;;;;;16.00;9.13;;;26.80;66.90;;;;;;7651943;22;81445;-60
2023/09/10 12:28:21;;;;;;;15.10;9.20;;;26.80;66.90;;;;;;7679787;22;80800;-60
2023/09/10 12:31:21;;;;;;;12.65;8.63;;;26.70;66.80;;;;;;7680351;22;80387;-60
2023/09/10 12:34:22;;;;;;;12.45;8.95;;;26.70;66.00;;;;;;7653922;22;80332;-61
2023/09/10 12:37:23;;;;;;;11.55;9.00;;;26.50;66.50;;;;;;7680887;22;80660;-61
2023/09/10 12:40:24;;;;;;;13.73;7.93;;;26.50;65.90;;;;;;7680419;22;80144;-61
2023/09/10 12:43:25;;;;;;;11.88;8.80;;;26.50;66.20;;;;;;7680210;22;80476;-62
2023/09/10 12:46:26;;;;;;;9.50;7.55;;;26.50;66.00;;;;;;7680609;22;80356;-61
2023/09/10 12:49:26;;;;;;;9.80;8.13;;;26.60;66.70;;;;;;7680168;22;79896;-61
2023/09/10 12:52:27;;;;;;;11.30;7.88;;;26.80;66.70;;;;;;7679244;22;80443;-64
2023/09/10 12:55:27;;;;;;;9.27;7.57;;;26.80;66.90;;;;;;7679134;22;81199;-61
2023/09/10 12:58:28;;;;;;;8.93;7.47;;;26.90;65.60;;;;;;7681602;22;80338;-62
2023/09/10 13:01:29;;;;;;;8.93;7.22;;;27.10;63.90;;;;;;7654821;22;80212;-62
2023/09/10 13:04:29;;;;;;;9.15;7.20;;;27.20;60.10;;;;;;7680991;22;80774;-57
2023/09/10 13:07:30;;;;;;;10.98;7.43;;;27.30;61.00;;;;;;7654233;22;79997;-59
2023/09/10 13:10:31;;;;;;;9.23;7.32;;;27.30;62.80;;;;;;7680370;22;80352;-58
2023/09/10 13:13:31;;;;;;;11.82;7.05;;;27.30;62.90;;;;;;7654040;22;82110;-61
2023/09/10 13:16:33;;;;;;;11.10;8.13;;;27.40;60.70;;;;;;7681899;22;80729;-60
2023/09/10 13:19:33;;;;;;;8.98;7.05;;;27.60;60.60;;;;;;7652799;22;80785;-60
2023/09/10 13:22:34;;;;;;;9.55;6.75;;;27.80;59.50;;;;;;7681007;22;80448;-60
2023/09/10 13:25:35;;;;;;;11.10;8.35;;;28.00;59.50;;;;;;7682620;22;80587;-60
2023/09/10 13:28:36;;;;;;;9.63;6.75;;;28.10;59.00;;;;;;7682747;22;80558;-60
2023/09/10 13:31:36;;;;;;;9.00;7.07;;;28.10;58.40;;;;;;7679790;22;80280;-59
2023/09/10 13:34:37;;;;;;;8.23;6.78;;;28.20;58.30;;;;;;7665830;22;81489;-60
2023/09/10 13:37:38;;;;;;;20.65;6.63;;;28.20;57.60;;;;;;7680309;22;81133;-59
2023/09/10 13:40:41;;;;;;;9.48;7.25;;;28.30;57.70;;;;;;7680532;22;80314;-59
2023/09/10 13:43:41;;;;;;;7.80;6.53;;;28.20;57.80;;;;;;7678465;22;81043;-58
2023/09/10 13:46:42;;;;;;;8.98;6.88;;;28.30;58.60;;;;;;7678730;22;81065;-58
2023/09/10 14:03:09;;;;;;;7.50;6.13;;;27.80;59.60;;;;;;7642708;22;80608;-58
2023/09/10 14:06:10;;;;;;;7.97;6.32;;;27.80;58.30;;;;;;7643478;22;80155;-58
2023/09/10 14:09:10;;;;;;;9.02;6.50;;;27.70;59.10;;;;;;7630250;22;80504;-59
2023/09/10 14:12:11;;;;;;;8.93;6.55;;;27.70;59.20;;;;;;7638031;22;81430;-58
2023/09/10 14:15:11;;;;;;;10.68;6.90;;;27.70;60.50;;;;;;7639255;22;80644;-57
2023/09/10 14:18:12;;;;;;;10.88;6.05;;;27.60;61.30;;;;;;7642224;22;80320;-55
2023/09/10 14:21:13;;;;;;;12.05;6.47;;;27.60;61.20;;;;;;7637516;22;80868;-59
2023/09/10 14:24:13;;;;;;;13.63;6.53;;;27.60;60.50;;;;;;7633303;22;80974;-60
2023/09/10 14:27:14;;;;;;;21.60;7.22;;;27.70;58.90;;;;;;7633370;22;80956;-59
2023/09/10 14:30:14;;;;;;;8.60;6.25;;;27.70;59.40;;;;;;7631327;22;80806;-57
2023/09/10 14:33:15;;;;;;;8.15;6.20;;;27.70;58.30;;;;;;7623101;22;81146;-57
2023/09/10 14:36:22;;;;;;;6.50;5.28;;;27.70;57.40;;;;;;7605546;22;81014;-57
2023/09/10 14:39:22;;;;;;;8.60;6.15;;;27.70;57.40;;;;;;7623339;22;81453;-53
2023/09/10 14:42:23;;;;;;;11.90;5.43;;;27.70;57.90;;;;;;7621358;22;80791;-57
2023/09/10 14:45:23;;;;;;;7.57;6.25;;;27.70;56.30;;;;;;7591309;22;81242;-55
2023/09/10 14:48:24;;;;;;;8.55;6.15;;;27.70;56.20;;;;;;7620511;22;81075;-59
2023/09/10 14:51:24;;;;;;;7.72;6.10;;;27.80;57.50;;;;;;7595470;22;80687;-58
2023/09/10 14:54:25;;;;;;;11.20;7.65;;;27.70;58.60;;;;;;7589379;22;81672;-62
2023/09/10 14:57:25;;;;;;;9.70;6.97;;;27.70;60.30;;;;;;7571561;22;82355;-61
2023/09/10 15:00:26;;;;;;;10.02;6.63;;;27.70;60.60;;;;;;7597916;22;81384;-62
2023/09/10 15:03:27;;;;;;;9.68;6.90;;;27.70;60.90;;;;;;7572070;22;81804;-62
2023/09/10 15:06:27;;;;;;;9.07;7.22;;;27.70;62.20;;;;;;7601496;22;82354;-59
2023/09/10 15:09:28;;;;;;;10.60;7.50;;;27.60;61.50;;;;;;7619381;22;81237;-59
2023/09/10 15:12:28;;;;;;;8.73;7.30;;;27.60;62.30;;;;;;7616894;22;80743;-58
2023/09/10 15:15:29;;;;;;;9.07;6.85;;;27.60;62.60;;;;;;7617650;22;80832;-59
2023/09/10 15:18:29;;;;;;;9.90;7.75;;;27.60;62.90;;;;;;7619996;22;81158;-59
2023/09/10 15:21:30;;;;;;;13.30;7.50;;;27.50;62.90;;;;;;7624738;22;81578;-59
2023/09/10 15:24:30;;;;;;;8.45;7.25;;;27.50;63.50;;;;;;7602564;22;81515;-58
2023/09/10 15:27:31;;;;;;;9.20;7.20;;;27.40;63.90;;;;;;7607725;22;81499;-58
2023/09/10 15:30:31;;;;;;;8.40;7.25;;;27.40;63.80;;;;;;7619495;22;80884;-56
2023/09/10 15:33:32;;;;;;;10.82;7.72;;;27.50;63.50;;;;;;7621144;22;81138;-57
2023/09/10 15:36:34;;;;;;;8.43;7.10;;;27.50;63.60;;;;;;7625648;22;80818;-59
2023/09/10 15:39:35;;;;;;;9.07;7.40;;;27.40;63.90;;;;;;7622777;22;80918;-59
2023/09/10 15:42:35;;;;;;;8.77;6.72;;;27.40;64.00;;;;;;7595925;22;82128;-59
2023/09/10 15:45:36;;;;;;;8.07;6.57;;;27.40;63.70;;;;;;7622061;22;80655;-60
2023/09/10 15:48:38;;;;;;;10.27;7.65;;;27.40;64.00;;;;;;7623066;22;81308;-60
2023/09/10 15:51:38;;;;;;;8.52;6.95;;;27.40;63.40;;;;;;7623583;22;81005;-61
2023/09/10 15:54:39;;;;;;;10.82;7.30;;;27.40;63.60;;;;;;7591562;22;81575;-60
2023/09/10 15:57:40;;;;;;;10.18;7.25;;;27.40;64.10;;;;;;7617559;22;80752;-61
2023/09/10 16:00:40;;;;;;;13.57;7.55;;;27.40;63.70;;;;;;7618059;22;80989;-60
2023/09/10 16:03:41;;;;;;;18.85;7.45;;;27.30;64.20;;;;;;7564843;22;81553;-59
2023/09/10 16:06:42;;;;;;;9.43;7.05;;;27.30;63.90;;;;;;7616211;22;80748;-57
2023/09/10 16:09:42;;;;;;;10.63;7.38;;;27.30;63.90;;;;;;7621714;22;80834;-59
2023/09/10 16:12:43;;;;;;;10.45;8.55;;;27.30;63.80;;;;;;7621389;22;81229;-60
2023/09/10 16:15:43;;;;;;;12.93;8.55;;;27.30;63.70;;;;;;7621087;22;80504;-57
2023/09/10 16:18:44;;;;;;;11.50;7.70;;;27.20;64.00;;;;;;7623557;22;80631;-59
2023/09/10 16:21:44;;;;;;;10.45;7.15;;;27.20;64.20;;;;;;7623584;22;80586;-55
2023/09/10 16:24:45;;;;;;;11.15;7.50;;;27.20;64.20;;;;;;7619906;22;80872;-59
2023/09/10 16:27:46;;;;;;;9.43;7.28;;;27.20;64.00;;;;;;7623912;22;80822;-58
2023/09/10 16:30:47;;;;;;;11.98;7.72;;;27.20;64.20;;;;;;7571273;22;86724;-58
2023/09/10 16:33:47;;;;;;;11.15;7.90;;;27.10;64.10;;;;;;7621513;22;80747;-59
2023/09/10 16:36:48;;;;;;;10.98;7.40;;;27.20;64.20;;;;;;7620746;22;81016;-57
2023/09/10 16:39:48;;;;;;;10.63;8.02;;;27.10;64.30;;;;;;7619800;22;81441;-59
2023/09/10 16:42:49;;;;;;;15.05;8.75;;;27.10;64.50;;;;;;7627078;22;81283;-58
2023/09/10 16:45:49;;;;;;;12.80;8.20;;;27.10;64.50;;;;;;7637672;22;80625;-58